Terminal Aerodrome Forecast
Issued by NWS Pueblo, CO

Home | Current Version | Previous Version | Text Only | Print | Product List | Glossary On
Versions: 1 2 3 4 5 6 7 8 9 10 11 12 13 14 15 16 17 18 19 20 21 22 23 24 25 26 27 28 29 30 31 32 33 34 35 36 37 38 39 40 41 42
000
FTUS45 KPUB 281739
TAFALS
TAF
KALS 281739Z 2818/0118 17007KT 3SM -SN BR SCT012 OVC020
      TEMPO 2818/2821 1SM -SN BR BKN012
     FM010300 20008KT P6SM VCSH SCT020 BKN070
     FM011000 19006KT 1SM BR VCSH BKN008=

USA.gov is the U.S. government's official web portal to all federal, state and local government web resources and services.